createdAt,value
2023-05-10T00:04:04.423Z,100938.64
2023-05-10T00:09:07.600Z,100937.80
2023-05-10T00:14:10.500Z,100937.98
2023-05-10T00:19:13.361Z,100936.77
2023-05-10T00:24:16.202Z,100931.05
2023-05-10T00:29:19.051Z,100931.92
2023-05-10T00:34:21.954Z,100930.89
2023-05-10T00:39:24.816Z,100926.37
2023-05-10T00:44:27.672Z,100923.42
2023-05-10T00:49:31.122Z,100921.52
2023-05-10T00:54:33.881Z,100925.86
2023-05-10T00:59:36.803Z,100927.76
2023-05-10T01:04:40.596Z,100924.63
2023-05-10T01:09:43.491Z,100920.96
2023-05-10T01:14:46.983Z,100916.64
2023-05-10T01:19:51.120Z,100917.67
2023-05-10T01:25:00.196Z,100912.99
2023-05-10T01:30:15.912Z,100912.66
2023-05-10T01:35:39.480Z,100913.87
2023-05-10T01:41:00.909Z,100911.63
2023-05-10T01:46:12.125Z,100908.85
2023-05-10T01:51:24.051Z,100912.50
2023-05-10T01:56:29.343Z,100915.45
2023-05-10T02:01:34.719Z,100911.27
2023-05-10T02:06:39.640Z,100919.25
2023-05-10T02:11:45.182Z,100923.06
2023-05-10T02:16:50.051Z,100917.34
2023-05-10T02:21:53.628Z,100916.83
2023-05-10T02:26:58.374Z,100923.60
2023-05-10T02:32:02.697Z,100919.59
2023-05-10T02:37:07.180Z,100917.35
2023-05-10T02:42:15.130Z,100910.07
2023-05-10T02:47:19.800Z,100906.60
2023-05-10T02:52:27.448Z,100903.30
2023-05-10T02:57:34.926Z,100904.36
2023-05-10T03:02:38.027Z,100907.30
2023-05-10T03:07:41.105Z,100908.85
2023-05-10T03:13:12.270Z,100911.46
2023-05-10T03:18:22.500Z,100902.10
2023-05-10T03:23:31.314Z,100908.35
2023-05-10T03:28:35.910Z,100902.61
2023-05-10T03:33:50.456Z,100899.33
2023-05-10T03:38:53.376Z,100899.15
2023-05-10T03:43:56.230Z,100902.44
2023-05-10T03:48:59.101Z,100901.55
2023-05-10T03:54:02.142Z,100903.79
2023-05-10T03:59:08.502Z,100908.09
2023-05-10T04:04:11.565Z,100898.97
2023-05-10T04:09:15.162Z,100899.55
2023-05-10T04:14:18.056Z,100899.27
2023-05-10T04:19:21.429Z,100903.32
2023-05-10T04:24:24.613Z,100903.05
2023-05-10T04:29:29.730Z,100907.08
2023-05-10T04:34:35.973Z,100907.07
2023-05-10T04:39:42.188Z,100904.76
2023-05-10T04:44:45.867Z,100900.17
2023-05-10T04:49:48.713Z,100892.92
2023-05-10T04:54:51.959Z,100893.80
2023-05-10T04:59:54.666Z,100895.88
2023-05-10T05:04:59.014Z,100896.15
2023-05-10T05:10:01.886Z,100898.46
2023-05-10T05:15:05.548Z,100892.16
2023-05-10T05:20:10.520Z,100893.19
2023-05-10T05:25:13.860Z,100894.12
2023-05-10T05:30:16.978Z,100895.70
2023-05-10T05:35:20.042Z,100889.84
2023-05-10T05:40:23.441Z,100895.82
2023-05-10T05:45:26.378Z,100895.27
2023-05-10T05:50:29.233Z,100895.09
2023-05-10T05:55:32.696Z,100890.48
2023-05-10T06:00:35.886Z,100891.55
2023-05-10T06:05:39.292Z,100885.65
2023-05-10T06:10:42.423Z,100890.99
2023-05-10T06:15:45.400Z,100892.12
2023-05-10T06:20:48.263Z,100892.28
2023-05-10T06:25:51.194Z,100891.17
2023-05-10T06:30:54.189Z,100884.95
2023-05-10T06:35:57.136Z,100881.83
2023-05-10T06:41:01.258Z,100880.95
2023-05-10T06:46:04.569Z,100882.60
2023-05-10T06:51:07.648Z,100879.80
2023-05-10T06:56:10.495Z,100877.40
2023-05-10T07:01:14.021Z,100870.34
2023-05-10T07:06:29.430Z,100872.94
2023-05-10T07:11:36.570Z,100872.77
2023-05-10T07:16:40.154Z,100874.19
2023-05-10T07:21:45.358Z,100875.03
2023-05-10T07:26:49.399Z,100872.14
2023-05-10T07:31:52.487Z,100872.44
2023-05-10T07:36:55.672Z,100871.98
2023-05-10T07:41:59.929Z,100872.86
2023-05-10T07:47:03.842Z,100874.78
2023-05-10T07:52:06.758Z,100873.17
2023-05-10T07:57:09.536Z,100869.94
2023-05-10T08:02:12.495Z,100864.70
2023-05-10T08:07:15.366Z,100873.81
2023-05-10T08:12:18.244Z,100862.42
2023-05-10T08:17:23.472Z,100861.59
2023-05-10T08:22:28.494Z,100861.89
2023-05-10T08:27:31.348Z,100860.23
2023-05-10T08:32:34.310Z,100858.98
2023-05-10T08:37:37.253Z,100855.73
2023-05-10T08:42:44.067Z,100868.13
2023-05-10T08:47:48.134Z,100863.22
2023-05-10T08:52:55.142Z,100867.30
2023-05-10T08:57:58.207Z,100871.27
2023-05-10T09:03:02.133Z,100855.36
2023-05-10T09:08:06.983Z,100860.48
2023-05-10T09:13:11.555Z,100855.58
2023-05-10T09:18:14.673Z,100861.28
2023-05-10T09:23:17.614Z,100860.11
2023-05-10T09:28:20.531Z,100856.62
2023-05-10T09:33:23.421Z,100846.96
2023-05-10T09:38:27.795Z,100843.58
2023-05-10T09:43:39.012Z,100843.55
2023-05-10T09:48:47.302Z,100848.06
2023-05-10T09:54:10.620Z,100839.70
2023-05-10T09:59:14.005Z,100831.59
2023-05-10T10:04:17.262Z,100829.39
2023-05-10T10:09:20.292Z,100823.38
2023-05-10T10:14:24.968Z,100805.08
2023-05-10T10:19:27.910Z,100800.81
2023-05-10T10:24:30.886Z,100797.53
2023-05-10T10:29:42.310Z,100788.36
2023-05-10T10:34:45.248Z,100786.08
2023-05-10T10:39:50.689Z,100776.48
2023-05-10T10:45:13.282Z,100768.92
2023-05-10T10:50:17.507Z,100764.17
2023-05-10T10:55:26.059Z,100764.05
2023-05-10T11:00:34.084Z,100762.08
2023-05-10T11:05:41.594Z,100755.20
2023-05-10T11:11:11.223Z,100751.17
2023-05-10T11:16:16.636Z,100747.08
2023-05-10T11:21:19.951Z,100734.61
2023-05-10T11:26:26.274Z,100739.03
2023-05-10T11:31:29.892Z,100734.55
2023-05-10T11:36:37.407Z,100729.17
2023-05-10T11:41:42.897Z,100725.75
2023-05-10T11:46:45.983Z,100719.94
2023-05-10T11:51:55.345Z,100719.12
2023-05-10T11:56:58.177Z,100715.14
2023-05-10T12:02:01.298Z,100712.90
2023-05-10T12:07:04.468Z,100720.57
2023-05-10T12:12:07.772Z,100713.88
2023-05-10T12:17:14.506Z,100714.04
2023-05-10T12:22:23.323Z,100712.91
2023-05-10T12:27:41.613Z,100709.61
2023-05-10T12:32:45.370Z,100709.92
2023-05-10T12:37:49.007Z,100709.21
2023-05-10T12:42:51.923Z,100713.57
2023-05-10T12:47:54.908Z,100714.08
2023-05-10T12:52:58.110Z,100708.45
2023-05-10T12:58:01.230Z,100705.84
2023-05-10T13:03:06.216Z,100703.36
2023-05-10T13:08:09.025Z,100699.99
2023-05-10T13:13:11.882Z,100707.70
2023-05-10T13:18:14.690Z,100702.45
2023-05-10T13:23:17.544Z,100701.02
2023-05-10T13:28:20.516Z,100689.31
2023-05-10T13:33:23.279Z,100682.92
2023-05-10T13:38:26.829Z,100685.15
2023-05-10T13:43:30.494Z,100682.79
2023-05-10T13:48:33.272Z,100677.70
2023-05-10T13:53:36.038Z,100678.65
2023-05-10T13:58:38.839Z,100674.20
2023-05-10T14:03:41.725Z,100674.54
2023-05-10T14:08:44.774Z,100672.48
2023-05-10T14:13:47.515Z,100671.89
2023-05-10T14:18:50.387Z,100669.29
2023-05-10T14:23:53.317Z,100662.27
2023-05-10T14:28:56.201Z,100667.48
2023-05-10T14:34:00.272Z,100668.45
2023-05-10T14:39:03.942Z,100663.77
2023-05-10T14:44:06.739Z,100664.77
2023-05-10T14:49:09.632Z,100665.38
2023-05-10T14:54:12.467Z,100661.27
2023-05-10T14:59:15.328Z,100658.34
2023-05-10T15:04:18.582Z,100656.46
2023-05-10T15:09:21.860Z,100656.27
2023-05-10T15:14:24.715Z,100661.98
2023-05-10T15:19:27.490Z,100653.16
2023-05-10T15:24:30.917Z,100655.23
2023-05-10T15:29:35.345Z,100650.54
2023-05-10T15:34:38.179Z,100654.32
2023-05-10T15:39:41.009Z,100650.22
2023-05-10T15:44:45.553Z,100654.20
2023-05-10T15:49:48.560Z,100650.35
2023-05-10T15:54:51.942Z,100650.30
2023-05-10T15:59:54.818Z,100651.40
2023-05-10T16:04:57.698Z,100645.70
2023-05-10T16:10:04.145Z,100649.25
2023-05-10T16:15:07.832Z,100647.36
2023-05-10T16:20:11.220Z,100653.17
2023-05-10T16:25:14.303Z,100651.35
2023-05-10T16:30:17.276Z,100649.24
2023-05-10T16:35:20.220Z,100650.39
2023-05-10T16:40:24.099Z,100652.10
2023-05-10T16:45:27.051Z,100650.95
2023-05-10T16:50:29.902Z,100658.91
2023-05-10T16:55:32.734Z,100661.18
2023-05-10T17:00:36.395Z,100657.60
2023-05-10T17:05:39.209Z,100661.21
2023-05-10T17:10:42.085Z,100661.05
2023-05-10T17:15:47.448Z,100665.54
2023-05-10T17:20:50.864Z,100668.52
2023-05-10T17:25:53.652Z,100676.31
2023-05-10T17:31:00.217Z,100680.70
2023-05-10T17:36:03.860Z,100683.25
2023-05-10T17:41:06.731Z,100688.00
2023-05-10T17:46:09.687Z,100691.78
2023-05-10T17:51:12.796Z,100695.10
2023-05-10T17:56:15.629Z,100697.64
2023-05-10T18:01:18.590Z,100702.70
2023-05-10T18:06:21.539Z,100706.13
2023-05-10T18:11:24.404Z,100711.13
2023-05-10T18:16:27.244Z,100712.59
2023-05-10T18:21:30.046Z,100710.77
2023-05-10T18:26:32.870Z,100716.77
2023-05-10T18:31:35.804Z,100720.32
2023-05-10T18:36:38.773Z,100727.52
2023-05-10T18:41:41.542Z,100735.30
2023-05-10T18:46:44.633Z,100745.63
2023-05-10T18:51:47.506Z,100748.25
2023-05-10T18:56:50.324Z,100748.61
2023-05-10T19:01:54.893Z,100750.89
2023-05-10T19:07:01.044Z,100755.23
2023-05-10T19:12:03.992Z,100755.40
2023-05-10T19:17:09.802Z,100761.09
2023-05-10T19:22:13.451Z,100758.48
2023-05-10T19:27:16.879Z,100758.06
2023-05-10T19:32:19.818Z,100759.98
2023-05-10T19:37:22.770Z,100761.21
2023-05-10T19:42:25.642Z,100768.70
2023-05-10T19:47:28.623Z,100774.79
2023-05-10T19:52:31.467Z,100781.02
2023-05-10T19:57:34.377Z,100780.23
2023-05-10T20:02:37.244Z,100790.44
2023-05-10T20:07:40.136Z,100794.48
2023-05-10T20:12:52.239Z,100792.86
2023-05-10T20:17:55.644Z,100794.34
2023-05-10T20:22:58.547Z,100798.65
2023-05-10T20:28:01.423Z,100799.38
2023-05-10T20:33:04.490Z,100794.48
2023-05-10T20:38:07.489Z,100800.96
2023-05-10T20:43:10.763Z,100801.91
2023-05-10T20:48:13.714Z,100805.75
2023-05-10T20:53:18.606Z,100803.11
2023-05-10T20:58:21.567Z,100805.31
2023-05-10T21:03:24.414Z,100809.25
2023-05-10T21:08:27.271Z,100810.09
2023-05-10T21:13:30.345Z,100814.81
2023-05-10T21:18:33.493Z,100815.17
2023-05-10T21:23:36.350Z,100815.33
2023-05-10T21:28:40.208Z,100817.53
2023-05-10T21:33:43.568Z,100820.58
2023-05-10T21:38:46.771Z,100819.77
2023-05-10T21:43:49.612Z,100821.91
2023-05-10T21:48:52.392Z,100826.88
2023-05-10T21:53:55.263Z,100828.84
2023-05-10T21:58:58.083Z,100827.98
2023-05-10T22:04:01.279Z,100827.96
2023-05-10T22:09:05.197Z,100835.95
2023-05-10T22:14:08.088Z,100839.73
2023-05-10T22:19:10.893Z,100839.85
2023-05-10T22:24:13.827Z,100841.89
2023-05-10T22:29:17.144Z,100843.36
2023-05-10T22:34:19.855Z,100843.48
2023-05-10T22:39:23.656Z,100850.56
2023-05-10T22:44:26.485Z,100852.58
2023-05-10T22:49:29.383Z,100854.77
2023-05-10T22:54:33.750Z,100859.02
2023-05-10T22:59:38.620Z,100860.84
2023-05-10T23:04:41.506Z,100858.30
2023-05-10T23:09:44.381Z,100860.27
2023-05-10T23:14:47.765Z,100862.23
2023-05-10T23:19:50.593Z,100865.84
2023-05-10T23:24:53.388Z,100857.05
2023-05-10T23:29:56.831Z,100856.23
2023-05-10T23:34:59.595Z,100855.77
2023-05-10T23:40:03.241Z,100858.85
2023-05-10T23:45:06.799Z,100867.03
2023-05-10T23:50:10.251Z,100868.15
2023-05-10T23:55:13.177Z,100869.44
